createdAt,value
2018-08-20T05:33:10.507Z,13.60
2018-08-20T05:35:38.743Z,12.60
2018-08-20T05:38:06.968Z,13.37
2018-08-20T05:40:35.203Z,13.50
2018-08-20T05:43:03.420Z,12.77
2018-08-20T05:45:31.636Z,12.80
2018-08-20T05:47:59.872Z,12.80
2018-08-20T05:50:28.088Z,11.30
2018-08-20T05:52:56.328Z,10.83
2018-08-20T05:55:24.551Z,10.77
2018-08-20T05:57:52.792Z,10.67
2018-08-20T06:00:21.015Z,10.57
2018-08-20T06:02:49.255Z,11.20
2018-08-20T06:05:17.474Z,10.37
2018-08-20T06:07:45.750Z,9.77
2018-08-20T06:10:14.005Z,10.67
2018-08-20T06:12:42.233Z,10.40
2018-08-20T06:15:12.815Z,10.23
2018-08-20T06:17:41.184Z,9.57
2018-08-20T06:20:11.496Z,9.17
2018-08-20T06:22:39.827Z,8.80
2018-08-20T06:25:08.887Z,9.97
2018-08-20T06:27:37.163Z,8.70
2018-08-20T06:30:05.701Z,9.83
2018-08-20T06:32:34.024Z,9.10
2018-08-20T06:35:02.239Z,9.03
2018-08-20T06:37:30.460Z,8.60
2018-08-20T06:39:58.671Z,8.83
2018-08-20T06:42:26.897Z,8.73
2018-08-20T06:44:55.113Z,8.93
2018-08-20T06:47:23.355Z,8.03
2018-08-20T06:49:58.188Z,8.80
2018-08-20T06:52:26.545Z,8.30
2018-08-20T06:54:54.762Z,8.63
2018-08-20T06:57:22.996Z,8.23
2018-08-20T06:59:51.211Z,9.17
2018-08-20T07:02:19.448Z,8.17
2018-08-20T07:04:47.667Z,8.03
2018-08-20T07:07:15.899Z,8.90
2018-08-20T07:09:44.104Z,7.80
2018-08-20T07:12:12.334Z,8.10
2018-08-20T07:14:40.548Z,7.47
2018-08-20T07:17:08.835Z,8.27
2018-08-20T07:19:37.057Z,7.33
2018-08-20T07:22:05.308Z,7.80
2018-08-20T07:24:33.572Z,7.73
2018-08-20T07:27:01.803Z,8.33
2018-08-20T07:29:39.020Z,7.20
2018-08-20T07:32:09.628Z,7.27
2018-08-20T07:34:39.664Z,7.97
2018-08-20T07:37:08.838Z,7.83
2018-08-20T07:39:37.055Z,8.20
2018-08-20T07:42:05.312Z,9.03
2018-08-20T07:44:33.552Z,7.70
2018-08-20T07:47:01.803Z,8.10
2018-08-20T07:49:30.020Z,8.00
2018-08-20T07:51:58.267Z,7.80
2018-08-20T07:54:26.475Z,7.63
2018-08-20T07:56:54.683Z,7.00
2018-08-20T07:59:22.920Z,7.80
2018-08-20T08:01:51.131Z,8.00
2018-08-20T08:04:19.360Z,8.87
2018-08-20T08:06:47.587Z,9.03
2018-08-20T08:09:15.812Z,8.20
2018-08-20T08:11:44.024Z,7.17
2018-08-20T08:14:12.331Z,8.10
2018-08-20T08:16:40.491Z,8.10
2018-08-20T08:19:08.739Z,7.07
2018-08-20T08:21:36.956Z,7.50
2018-08-20T08:24:05.188Z,7.73
2018-08-20T08:26:33.485Z,7.90
2018-08-20T08:29:01.691Z,7.27
2018-08-20T08:31:29.904Z,7.30
2018-08-20T08:33:58.135Z,7.00
2018-08-20T08:36:26.344Z,8.83
2018-08-20T08:38:54.582Z,7.27
2018-08-20T08:41:22.795Z,6.90
2018-08-20T08:43:51.065Z,7.40
2018-08-20T08:46:19.255Z,6.10
2018-08-20T08:48:47.483Z,6.10
2018-08-20T08:51:15.692Z,7.83
2018-08-20T08:53:43.933Z,7.23
2018-08-20T08:56:12.143Z,7.00
2018-08-20T08:58:40.388Z,7.37
2018-08-20T09:01:08.604Z,6.33
2018-08-20T09:03:36.823Z,6.70
2018-08-20T09:06:05.059Z,7.20
2018-08-20T09:08:33.304Z,7.37
2018-08-20T09:11:01.528Z,7.57
2018-08-20T09:13:29.760Z,7.23
2018-08-20T09:15:57.976Z,6.93
2018-08-20T09:18:26.228Z,6.47
2018-08-20T09:20:54.435Z,7.20
2018-08-20T09:23:22.659Z,6.87
2018-08-20T09:25:50.864Z,6.37
2018-08-20T09:28:19.421Z,7.73
2018-08-20T09:30:47.677Z,7.90
2018-08-20T09:33:15.928Z,7.60
2018-08-20T09:35:44.135Z,6.60
2018-08-20T09:38:12.392Z,7.43
2018-08-20T09:40:40.612Z,7.37
2018-08-20T09:43:08.836Z,7.37
2018-08-20T09:48:11.488Z,7.20
2018-08-20T09:50:39.730Z,7.20
2018-08-20T09:53:07.959Z,7.90
2018-08-20T09:55:36.189Z,6.73
2018-08-20T09:58:04.404Z,7.47
2018-08-20T10:00:37.824Z,6.33
2018-08-20T10:03:06.040Z,6.73
2018-08-20T10:05:34.267Z,7.13
2018-08-20T10:08:02.488Z,7.50
2018-08-20T10:10:30.714Z,7.20
2018-08-20T10:12:58.935Z,6.67
2018-08-20T10:15:27.165Z,7.00
2018-08-20T10:17:55.392Z,7.83
2018-08-20T10:20:23.627Z,7.27
2018-08-20T10:22:51.846Z,7.87
2018-08-20T10:25:20.128Z,6.70
2018-08-20T10:27:48.312Z,7.67
2018-08-20T10:30:16.549Z,7.10
2018-08-20T10:32:44.764Z,6.87
2018-08-20T10:35:12.992Z,6.97
2018-08-20T10:37:41.258Z,7.17
2018-08-20T10:40:09.498Z,7.17
2018-08-20T10:42:38.287Z,7.30
2018-08-20T10:45:14.641Z,6.97
2018-08-20T10:47:43.830Z,7.20
2018-08-20T10:50:14.689Z,7.17
2018-08-20T10:52:43.423Z,6.80
2018-08-20T10:55:11.659Z,6.20
2018-08-20T10:57:39.881Z,6.13
2018-08-20T11:00:08.876Z,5.03
2018-08-20T11:02:37.112Z,4.97
2018-08-20T11:05:05.860Z,4.37
2018-08-20T11:07:34.074Z,3.90
2018-08-20T11:10:02.330Z,4.53
2018-08-20T11:12:30.534Z,4.07
2018-08-20T11:14:58.760Z,4.63
2018-08-20T11:17:26.986Z,3.67
2018-08-20T11:19:55.228Z,4.57
2018-08-20T11:22:23.436Z,3.63
2018-08-20T11:24:51.662Z,4.40
2018-08-20T11:27:19.926Z,4.20
2018-08-20T11:29:48.155Z,4.03
2018-08-20T11:32:16.357Z,4.03
2018-08-20T11:34:44.592Z,3.77
2018-08-20T11:37:12.802Z,3.50
2018-08-20T11:39:41.190Z,3.57
2018-08-20T11:42:09.680Z,3.83
2018-08-20T11:44:37.908Z,3.70
2018-08-20T11:47:06.120Z,3.40
2018-08-20T11:49:34.376Z,4.00
2018-08-20T11:52:02.607Z,3.67
2018-08-20T11:54:30.839Z,3.70
2018-08-20T11:56:59.083Z,3.30
2018-08-20T11:59:27.292Z,3.30
2018-08-20T12:01:55.519Z,3.63
2018-08-20T12:04:24.095Z,3.37
2018-08-20T12:06:52.395Z,3.60
2018-08-20T12:09:20.606Z,3.43
2018-08-20T12:11:48.828Z,2.70
2018-08-20T12:14:17.028Z,2.70
2018-08-20T12:16:45.288Z,2.80
2018-08-20T12:19:13.526Z,2.70
2018-08-20T12:21:41.804Z,2.90
2018-08-20T12:24:10.016Z,3.00
2018-08-20T12:26:38.251Z,3.03
2018-08-20T12:29:06.464Z,2.90
2018-08-20T12:31:34.688Z,3.30
2018-08-20T12:34:02.899Z,3.10
2018-08-20T12:36:31.151Z,3.23
2018-08-20T12:38:59.355Z,3.50
2018-08-20T12:41:27.591Z,2.83
2018-08-20T12:43:55.800Z,3.00
2018-08-20T12:46:24.049Z,3.03
2018-08-20T12:48:52.736Z,2.90
2018-08-20T12:51:21.663Z,2.87
2018-08-20T12:53:49.880Z,3.30
2018-08-20T12:56:18.107Z,2.93
2018-08-20T12:58:51.464Z,2.60
2018-08-20T13:01:19.799Z,2.87
2018-08-20T13:03:48.805Z,2.63
2018-08-20T13:06:17.063Z,2.83
2018-08-20T13:08:46.396Z,2.47
2018-08-20T13:11:14.744Z,2.80
2018-08-20T13:13:42.960Z,2.63
2018-08-20T13:16:11.301Z,2.53
2018-08-20T13:18:39.495Z,2.60
2018-08-20T13:21:07.717Z,2.80
2018-08-20T13:23:36.085Z,2.93
2018-08-20T13:26:04.389Z,3.20
2018-08-20T13:28:32.595Z,2.97
2018-08-20T13:31:00.921Z,2.87
2018-08-20T13:33:29.145Z,2.73
2018-08-20T13:35:57.384Z,2.47
2018-08-20T13:38:25.588Z,2.50
2018-08-20T13:40:53.835Z,2.63
2018-08-20T13:43:22.047Z,2.80
2018-08-20T13:45:50.280Z,2.67
2018-08-20T13:48:18.524Z,2.67
2018-08-20T13:50:46.760Z,2.03
2018-08-20T13:53:14.971Z,2.40
2018-08-20T13:55:43.192Z,2.33
2018-08-20T13:58:11.399Z,2.23
2018-08-20T14:00:39.608Z,2.40
2018-08-20T14:03:07.840Z,2.80
2018-08-20T14:05:36.051Z,2.80
2018-08-20T14:08:04.280Z,2.70
2018-08-20T14:10:32.480Z,2.20
2018-08-20T14:13:00.720Z,2.37
2018-08-20T14:15:28.974Z,2.80
2018-08-20T14:17:57.204Z,2.60
2018-08-20T14:20:25.420Z,2.67
2018-08-20T14:22:53.651Z,2.20
2018-08-20T14:25:21.863Z,2.53
2018-08-20T14:27:50.092Z,2.40
2018-08-20T14:30:18.312Z,2.43
2018-08-20T14:32:46.566Z,3.00
2018-08-20T14:35:14.793Z,2.43
2018-08-20T14:37:43.020Z,2.40
2018-08-20T14:40:14.751Z,2.40
2018-08-20T14:42:43.169Z,3.03
2018-08-20T14:45:12.601Z,2.20
2018-08-20T14:47:41.729Z,2.27
2018-08-20T14:50:12.704Z,2.70
2018-08-20T14:52:41.093Z,2.50
2018-08-20T14:55:09.848Z,2.43
2018-08-20T14:57:38.296Z,2.30
2018-08-20T15:00:08.368Z,2.30
2018-08-20T15:02:36.727Z,2.33
2018-08-20T15:05:05.103Z,2.57
2018-08-20T15:07:33.660Z,2.27
2018-08-20T15:10:01.892Z,1.97
2018-08-20T15:12:30.116Z,2.10
2018-08-20T15:14:58.333Z,2.77
2018-08-20T15:17:26.580Z,2.03
2018-08-20T15:19:54.788Z,2.30
2018-08-20T15:22:23.011Z,1.93
2018-08-20T15:24:51.219Z,2.03
2018-08-20T15:27:19.455Z,2.10
2018-08-20T15:29:47.662Z,2.13
2018-08-20T15:32:15.892Z,2.20
2018-08-20T15:34:44.133Z,2.00
2018-08-20T15:37:12.368Z,2.27
2018-08-20T15:39:40.653Z,2.30
2018-08-20T15:42:08.840Z,2.27
2018-08-20T15:44:37.856Z,2.27
2018-08-20T15:47:06.100Z,2.30
2018-08-20T15:49:34.309Z,2.37
2018-08-20T15:52:02.522Z,2.00
2018-08-20T15:54:30.755Z,2.10
2018-08-20T15:56:58.968Z,2.53
2018-08-20T15:59:27.207Z,2.47
2018-08-20T16:01:55.452Z,2.20
2018-08-20T16:04:23.688Z,2.20
2018-08-20T16:06:51.900Z,2.40
2018-08-20T16:09:20.124Z,2.27
2018-08-20T16:11:48.325Z,2.17
2018-08-20T16:14:16.564Z,2.17
2018-08-20T16:16:44.772Z,1.73
2018-08-20T16:19:13.028Z,2.10
2018-08-20T16:21:41.238Z,2.20
2018-08-20T16:24:09.476Z,2.00
2018-08-20T16:26:37.707Z,2.07
2018-08-20T16:29:06.079Z,2.00
2018-08-20T16:31:34.291Z,2.13
2018-08-20T16:34:02.536Z,2.30
2018-08-20T16:36:30.756Z,1.90
2018-08-20T16:38:58.988Z,1.93
2018-08-20T16:41:27.207Z,2.50
2018-08-20T16:43:55.463Z,2.20
2018-08-20T16:46:23.796Z,2.30
2018-08-20T16:48:52.051Z,1.80
2018-08-20T16:51:20.268Z,2.20
2018-08-20T16:53:48.500Z,2.33
2018-08-20T16:56:16.717Z,2.20
2018-08-20T16:58:44.956Z,1.70
2018-08-20T17:01:13.863Z,2.53
2018-08-20T17:03:42.087Z,1.70
2018-08-20T17:06:10.312Z,2.10
2018-08-20T17:08:39.159Z,1.90
2018-08-20T17:11:07.367Z,1.80
2018-08-20T17:13:35.599Z,2.10
2018-08-20T17:16:03.812Z,2.00
2018-08-20T17:18:32.051Z,2.17
2018-08-20T17:21:00.338Z,2.00
2018-08-20T17:23:28.504Z,1.97
2018-08-20T17:25:57.583Z,2.13
2018-08-20T17:28:26.979Z,2.13
2018-08-20T17:30:57.281Z,2.00
2018-08-20T17:33:25.568Z,2.03
2018-08-20T17:35:53.776Z,2.00
2018-08-20T17:38:21.988Z,2.20
2018-08-20T17:40:50.228Z,2.33
2018-08-20T17:43:18.436Z,2.37
2018-08-20T17:45:46.681Z,2.47
2018-08-20T17:48:20.762Z,2.30
2018-08-20T17:50:49.013Z,1.90
2018-08-20T17:53:17.228Z,2.40
2018-08-20T17:58:19.944Z,2.10
2018-08-20T18:00:53.403Z,2.17
2018-08-20T18:03:26.907Z,2.30
2018-08-20T18:05:56.449Z,2.00
2018-08-20T18:08:25.689Z,2.50
2018-08-20T18:10:54.016Z,2.20
2018-08-20T18:13:35.232Z,2.40
2018-08-20T18:16:06.526Z,2.40
2018-08-20T18:18:35.280Z,2.67
2018-08-20T18:21:03.524Z,2.27
2018-08-20T18:23:33.000Z,2.30
2018-08-20T18:26:01.260Z,2.40
2018-08-20T18:28:39.001Z,2.13
2018-08-20T18:31:19.270Z,2.00
2018-08-20T18:33:47.519Z,2.27
2018-08-20T18:36:16.807Z,2.47
2018-08-20T18:39:00.748Z,2.00
2018-08-20T18:42:10.372Z,2.57
2018-08-20T18:44:38.655Z,2.43
2018-08-20T18:47:09.868Z,2.10
2018-08-20T18:49:48.304Z,2.50
2018-08-20T18:52:16.579Z,2.50
2018-08-20T18:54:47.104Z,2.23
2018-08-20T18:57:23.643Z,1.93
2018-08-20T18:59:51.984Z,2.47
2018-08-20T19:02:41.024Z,2.30
2018-08-20T19:05:10.437Z,1.93
2018-08-20T19:07:38.777Z,2.40
2018-08-20T19:10:24.204Z,3.17
